sensor_id;sensor_type;location;lat;lon;timestamp;temperature;humidity
70170;DHT22;57543;45.442;9.212;2022-09-13T00:02:21;26.16;50.99
70170;DHT22;57543;45.442;9.212;2022-09-13T00:05:25;26.07;51.22
70170;DHT22;57543;45.442;9.212;2022-09-13T00:08:29;26.00;51.40
70170;DHT22;57543;45.442;9.212;2022-09-13T00:11:33;26.03;51.37
70170;DHT22;57543;45.442;9.212;2022-09-13T00:14:37;25.94;51.64
70170;DHT22;57543;45.442;9.212;2022-09-13T00:17:41;25.94;51.70
70170;DHT22;57543;45.442;9.212;2022-09-13T00:20:45;25.84;51.79
70170;DHT22;57543;45.442;9.212;2022-09-13T00:23:51;25.76;51.95
70170;DHT22;57543;45.442;9.212;2022-09-13T00:26:55;25.61;52.43
70170;DHT22;57543;45.442;9.212;2022-09-13T00:29:59;25.65;52.31
70170;DHT22;57543;45.442;9.212;2022-09-13T00:33:02;25.62;52.35
70170;DHT22;57543;45.442;9.212;2022-09-13T00:36:09;25.50;52.65
70170;DHT22;57543;45.442;9.212;2022-09-13T00:39:13;25.58;52.54
70170;DHT22;57543;45.442;9.212;2022-09-13T00:42:17;25.58;52.66
70170;DHT22;57543;45.442;9.212;2022-09-13T00:45:26;25.55;52.67
70170;DHT22;57543;45.442;9.212;2022-09-13T00:48:32;25.56;52.65
70170;DHT22;57543;45.442;9.212;2022-09-13T00:51:37;25.53;52.70
70170;DHT22;57543;45.442;9.212;2022-09-13T00:54:45;25.50;52.63
70170;DHT22;57543;45.442;9.212;2022-09-13T00:57:52;25.50;52.83
70170;DHT22;57543;45.442;9.212;2022-09-13T01:01:02;25.43;52.96
70170;DHT22;57543;45.442;9.212;2022-09-13T01:04:06;25.43;52.98
70170;DHT22;57543;45.442;9.212;2022-09-13T01:07:12;25.39;52.88
70170;DHT22;57543;45.442;9.212;2022-09-13T01:10:18;25.38;53.00
70170;DHT22;57543;45.442;9.212;2022-09-13T01:13:24;25.35;53.15
70170;DHT22;57543;45.442;9.212;2022-09-13T01:16:28;25.28;53.31
70170;DHT22;57543;45.442;9.212;2022-09-13T01:19:32;25.27;53.24
70170;DHT22;57543;45.442;9.212;2022-09-13T01:33:45;25.34;52.81
70170;DHT22;57543;45.442;9.212;2022-09-13T01:43:52;25.01;53.65
70170;DHT22;57543;45.442;9.212;2022-09-13T01:57:22;24.98;53.97
70170;DHT22;57543;45.442;9.212;2022-09-13T02:00:35;24.94;54.01
70170;DHT22;57543;45.442;9.212;2022-09-13T02:03:51;24.93;53.97
70170;DHT22;57543;45.442;9.212;2022-09-13T02:07:10;24.90;54.11
70170;DHT22;57543;45.442;9.212;2022-09-13T02:10:24;24.91;54.14
70170;DHT22;57543;45.442;9.212;2022-09-13T02:13:34;24.86;54.27
70170;DHT22;57543;45.442;9.212;2022-09-13T02:16:42;24.87;54.24
70170;DHT22;57543;45.442;9.212;2022-09-13T02:19:57;24.87;54.08
70170;DHT22;57543;45.442;9.212;2022-09-13T02:23:15;24.87;54.14
70170;DHT22;57543;45.442;9.212;2022-09-13T02:26:22;24.82;54.03
70170;DHT22;57543;45.442;9.212;2022-09-13T02:29:29;24.79;54.11
70170;DHT22;57543;45.442;9.212;2022-09-13T02:32:46;24.83;54.00
70170;DHT22;57543;45.442;9.212;2022-09-13T02:36:00;24.84;53.69
70170;DHT22;57543;45.442;9.212;2022-09-13T02:39:14;24.86;53.69
70170;DHT22;57543;45.442;9.212;2022-09-13T02:42:25;24.79;54.17
70170;DHT22;57543;45.442;9.212;2022-09-13T02:45:45;24.75;54.14
70170;DHT22;57543;45.442;9.212;2022-09-13T02:49:00;24.76;54.13
70170;DHT22;57543;45.442;9.212;2022-09-13T02:52:15;24.73;53.90
70170;DHT22;57543;45.442;9.212;2022-09-13T02:55:51;24.70;54.09
70170;DHT22;57543;45.442;9.212;2022-09-13T02:59:04;24.60;54.26
70170;DHT22;57543;45.442;9.212;2022-09-13T03:02:15;24.65;54.19
70170;DHT22;57543;45.442;9.212;2022-09-13T03:05:21;24.65;54.01
70170;DHT22;57543;45.442;9.212;2022-09-13T03:08:25;24.62;54.15
70170;DHT22;57543;45.442;9.212;2022-09-13T03:12:03;24.55;54.08
70170;DHT22;57543;45.442;9.212;2022-09-13T03:15:27;24.55;54.07
70170;DHT22;57543;45.442;9.212;2022-09-13T03:19:07;24.59;54.27
70170;DHT22;57543;45.442;9.212;2022-09-13T03:26:06;24.55;54.53
70170;DHT22;57543;45.442;9.212;2022-09-13T03:29:39;24.52;55.00
70170;DHT22;57543;45.442;9.212;2022-09-13T03:32:52;24.48;55.23
70170;DHT22;57543;45.442;9.212;2022-09-13T03:42:38;24.48;55.30
70170;DHT22;57543;45.442;9.212;2022-09-13T03:45:48;24.47;55.45
70170;DHT22;57543;45.442;9.212;2022-09-13T03:48:54;24.33;55.82
70170;DHT22;57543;45.442;9.212;2022-09-13T03:51:59;24.35;55.90
70170;DHT22;57543;45.442;9.212;2022-09-13T03:55:03;24.29;56.10
70170;DHT22;57543;45.442;9.212;2022-09-13T03:58:10;24.29;56.31
70170;DHT22;57543;45.442;9.212;2022-09-13T04:01:21;24.22;56.37
70170;DHT22;57543;45.442;9.212;2022-09-13T04:04:25;24.24;56.37
70170;DHT22;57543;45.442;9.212;2022-09-13T04:07:29;24.32;56.10
70170;DHT22;57543;45.442;9.212;2022-09-13T04:10:34;24.29;56.27
70170;DHT22;57543;45.442;9.212;2022-09-13T04:13:38;24.21;56.45
70170;DHT22;57543;45.442;9.212;2022-09-13T04:16:42;24.15;56.62
70170;DHT22;57543;45.442;9.212;2022-09-13T04:19:46;24.20;56.66
70170;DHT22;57543;45.442;9.212;2022-09-13T04:22:53;24.22;56.48
70170;DHT22;57543;45.442;9.212;2022-09-13T04:26:04;24.20;56.53
70170;DHT22;57543;45.442;9.212;2022-09-13T04:29:09;24.20;56.44
70170;DHT22;57543;45.442;9.212;2022-09-13T04:32:13;24.17;56.38
70170;DHT22;57543;45.442;9.212;2022-09-13T04:35:17;24.20;56.15
70170;DHT22;57543;45.442;9.212;2022-09-13T04:38:21;24.17;56.37
70170;DHT22;57543;45.442;9.212;2022-09-13T04:41:26;24.14;56.46
70170;DHT22;57543;45.442;9.212;2022-09-13T04:44:30;24.11;56.58
70170;DHT22;57543;45.442;9.212;2022-09-13T04:47:33;24.18;56.38
70170;DHT22;57543;45.442;9.212;2022-09-13T04:50:37;24.15;56.53
70170;DHT22;57543;45.442;9.212;2022-09-13T04:53:41;24.10;56.95
70170;DHT22;57543;45.442;9.212;2022-09-13T04:56:45;24.07;57.10
70170;DHT22;57543;45.442;9.212;2022-09-13T04:59:49;24.01;57.07
70170;DHT22;57543;45.442;9.212;2022-09-13T05:02:56;23.97;57.02
70170;DHT22;57543;45.442;9.212;2022-09-13T05:06:03;23.94;57.05
70170;DHT22;57543;45.442;9.212;2022-09-13T05:09:12;24.01;57.07
70170;DHT22;57543;45.442;9.212;2022-09-13T05:12:16;23.96;57.33
70170;DHT22;57543;45.442;9.212;2022-09-13T05:15:20;23.88;57.50
70170;DHT22;57543;45.442;9.212;2022-09-13T05:18:25;23.94;57.46
70170;DHT22;57543;45.442;9.212;2022-09-13T05:21:29;23.96;57.47
70170;DHT22;57543;45.442;9.212;2022-09-13T05:24:33;23.94;57.46
70170;DHT22;57543;45.442;9.212;2022-09-13T05:27:37;23.96;57.40
70170;DHT22;57543;45.442;9.212;2022-09-13T05:30:41;23.94;57.34
70170;DHT22;57543;45.442;9.212;2022-09-13T05:33:47;23.98;57.18
70170;DHT22;57543;45.442;9.212;2022-09-13T05:36:51;24.01;57.03
70170;DHT22;57543;45.442;9.212;2022-09-13T05:39:55;24.01;57.07
70170;DHT22;57543;45.442;9.212;2022-09-13T05:42:59;23.90;57.47
70170;DHT22;57543;45.442;9.212;2022-09-13T05:46:08;23.83;57.59
70170;DHT22;57543;45.442;9.212;2022-09-13T05:49:13;23.87;57.48
70170;DHT22;57543;45.442;9.212;2022-09-13T05:52:16;23.88;57.31
70170;DHT22;57543;45.442;9.212;2022-09-13T05:55:21;23.96;57.12
70170;DHT22;57543;45.442;9.212;2022-09-13T05:58:25;24.07;56.92
70170;DHT22;57543;45.442;9.212;2022-09-13T06:01:29;24.07;56.96
70170;DHT22;57543;45.442;9.212;2022-09-13T06:04:34;24.14;56.70
70170;DHT22;57543;45.442;9.212;2022-09-13T06:07:39;23.96;56.65
70170;DHT22;57543;45.442;9.212;2022-09-13T06:10:54;23.88;57.04
70170;DHT22;57543;45.442;9.212;2022-09-13T06:13:58;23.92;56.73
70170;DHT22;57543;45.442;9.212;2022-09-13T06:17:02;23.87;56.93
70170;DHT22;57543;45.442;9.212;2022-09-13T06:20:06;23.88;56.77
70170;DHT22;57543;45.442;9.212;2022-09-13T06:23:10;23.97;56.66
70170;DHT22;57543;45.442;9.212;2022-09-13T06:26:15;23.98;56.52
70170;DHT22;57543;45.442;9.212;2022-09-13T06:29:19;24.05;56.50
70170;DHT22;57543;45.442;9.212;2022-09-13T06:32:23;24.11;56.59
70170;DHT22;57543;45.442;9.212;2022-09-13T06:35:26;24.15;56.55
70170;DHT22;57543;45.442;9.212;2022-09-13T06:38:31;24.21;56.27
70170;DHT22;57543;45.442;9.212;2022-09-13T06:41:35;24.26;55.90
70170;DHT22;57543;45.442;9.212;2022-09-13T06:44:39;24.24;55.87
70170;DHT22;57543;45.442;9.212;2022-09-13T06:47:43;24.29;55.73
70170;DHT22;57543;45.442;9.212;2022-09-13T06:50:47;24.35;55.52
70170;DHT22;57543;45.442;9.212;2022-09-13T06:53:52;24.41;55.50
70170;DHT22;57543;45.442;9.212;2022-09-13T06:56:59;24.41;55.49
70170;DHT22;57543;45.442;9.212;2022-09-13T07:00:06;24.49;55.26
70170;DHT22;57543;45.442;9.212;2022-09-13T07:03:09;24.55;55.16
70170;DHT22;57543;45.442;9.212;2022-09-13T07:06:18;24.63;55.03
70170;DHT22;57543;45.442;9.212;2022-09-13T07:09:22;24.76;54.80
70170;DHT22;57543;45.442;9.212;2022-09-13T07:12:26;24.82;54.53
70170;DHT22;57543;45.442;9.212;2022-09-13T07:15:30;24.98;54.17
70170;DHT22;57543;45.442;9.212;2022-09-13T07:18:34;24.93;54.15
70170;DHT22;57543;45.442;9.212;2022-09-13T07:21:38;24.98;54.41
70170;DHT22;57543;45.442;9.212;2022-09-13T07:24:41;25.04;53.88
70170;DHT22;57543;45.442;9.212;2022-09-13T07:27:45;25.07;54.05
70170;DHT22;57543;45.442;9.212;2022-09-13T07:30:49;25.10;54.22
70170;DHT22;57543;45.442;9.212;2022-09-13T07:33:58;25.28;54.01
70170;DHT22;57543;45.442;9.212;2022-09-13T07:37:02;25.28;54.23
70170;DHT22;57543;45.442;9.212;2022-09-13T07:40:07;25.37;54.13
70170;DHT22;57543;45.442;9.212;2022-09-13T07:43:10;25.35;54.65
70170;DHT22;57543;45.442;9.212;2022-09-13T07:46:22;25.38;54.06
70170;DHT22;57543;45.442;9.212;2022-09-13T07:49:26;25.34;53.93
70170;DHT22;57543;45.442;9.212;2022-09-13T07:52:30;25.32;54.24
70170;DHT22;57543;45.442;9.212;2022-09-13T07:55:34;25.32;54.27
70170;DHT22;57543;45.442;9.212;2022-09-13T07:58:40;25.45;53.77
70170;DHT22;57543;45.442;9.212;2022-09-13T08:01:46;25.75;53.57
70170;DHT22;57543;45.442;9.212;2022-09-13T08:04:50;25.80;53.42
70170;DHT22;57543;45.442;9.212;2022-09-13T08:07:53;25.75;53.53
70170;DHT22;57543;45.442;9.212;2022-09-13T08:10:58;25.75;53.96
70170;DHT22;57543;45.442;9.212;2022-09-13T08:14:03;25.67;54.44
70170;DHT22;57543;45.442;9.212;2022-09-13T08:17:07;25.65;54.45
70170;DHT22;57543;45.442;9.212;2022-09-13T08:20:12;25.58;54.46
70170;DHT22;57543;45.442;9.212;2022-09-13T08:23:16;25.49;55.18
70170;DHT22;57543;45.442;9.212;2022-09-13T08:26:20;25.73;54.59
70170;DHT22;57543;45.442;9.212;2022-09-13T08:29:24;25.83;54.39
70170;DHT22;57543;45.442;9.212;2022-09-13T08:32:28;25.98;54.03
70170;DHT22;57543;45.442;9.212;2022-09-13T08:35:32;26.29;53.22
70170;DHT22;57543;45.442;9.212;2022-09-13T08:38:36;26.27;52.52
70170;DHT22;57543;45.442;9.212;2022-09-13T08:44:47;26.55;52.60
70170;DHT22;57543;45.442;9.212;2022-09-13T08:48:02;26.90;51.48
70170;DHT22;57543;45.442;9.212;2022-09-13T08:51:29;27.07;50.97
70170;DHT22;57543;45.442;9.212;2022-09-13T08:54:34;27.21;50.98
70170;DHT22;57543;45.442;9.212;2022-09-13T08:57:52;27.08;50.99
70170;DHT22;57543;45.442;9.212;2022-09-13T09:01:05;27.06;51.19
70170;DHT22;57543;45.442;9.212;2022-09-13T09:07:36;27.18;50.41
70170;DHT22;57543;45.442;9.212;2022-09-13T09:10:45;27.38;49.11
70170;DHT22;57543;45.442;9.212;2022-09-13T09:17:27;27.17;49.27
70170;DHT22;57543;45.442;9.212;2022-09-13T09:20:36;27.27;48.96
70170;DHT22;57543;45.442;9.212;2022-09-13T09:23:50;27.49;48.10
70170;DHT22;57543;45.442;9.212;2022-09-13T09:26:56;27.86;47.99
70170;DHT22;57543;45.442;9.212;2022-09-13T09:30:00;28.01;45.77
70170;DHT22;57543;45.442;9.212;2022-09-13T09:39:13;27.90;46.96
70170;DHT22;57543;45.442;9.212;2022-09-13T09:42:22;28.15;46.85
70170;DHT22;57543;45.442;9.212;2022-09-13T09:45:32;28.51;46.72
70170;DHT22;57543;45.442;9.212;2022-09-13T09:48:46;28.76;45.90
70170;DHT22;57543;45.442;9.212;2022-09-13T09:51:52;28.93;45.24
70170;DHT22;57543;45.442;9.212;2022-09-13T09:55:06;29.13;45.43
70170;DHT22;57543;45.442;9.212;2022-09-13T09:58:14;29.25;43.55
70170;DHT22;57543;45.442;9.212;2022-09-13T10:01:22;29.22;43.10
70170;DHT22;57543;45.442;9.212;2022-09-13T10:04:28;29.25;42.68
70170;DHT22;57543;45.442;9.212;2022-09-13T10:07:33;29.28;42.49
70170;DHT22;57543;45.442;9.212;2022-09-13T10:10:42;29.44;42.78
70170;DHT22;57543;45.442;9.212;2022-09-13T10:13:57;29.56;40.77
70170;DHT22;57543;45.442;9.212;2022-09-13T10:17:20;29.62;42.04
70170;DHT22;57543;45.442;9.212;2022-09-13T10:20:24;29.73;40.91
70170;DHT22;57543;45.442;9.212;2022-09-13T10:23:31;29.73;41.00
70170;DHT22;57543;45.442;9.212;2022-09-13T10:26:34;29.79;41.11
70170;DHT22;57543;45.442;9.212;2022-09-13T10:29:39;29.86;40.53
70170;DHT22;57543;45.442;9.212;2022-09-13T10:32:54;29.80;41.45
70170;DHT22;57543;45.442;9.212;2022-09-13T10:36:01;29.94;42.94
70170;DHT22;57543;45.442;9.212;2022-09-13T10:39:11;30.07;42.82
70170;DHT22;57543;45.442;9.212;2022-09-13T10:42:20;30.17;41.50
70170;DHT22;57543;45.442;9.212;2022-09-13T10:45:28;30.18;43.26
70170;DHT22;57543;45.442;9.212;2022-09-13T10:48:44;30.23;41.71
70170;DHT22;57543;45.442;9.212;2022-09-13T10:51:49;30.27;41.71
70170;DHT22;57543;45.442;9.212;2022-09-13T10:54:53;30.32;40.68
70170;DHT22;57543;45.442;9.212;2022-09-13T11:01:12;30.45;39.61
70170;DHT22;57543;45.442;9.212;2022-09-13T11:10:39;30.52;40.07
70170;DHT22;57543;45.442;9.212;2022-09-13T11:20:56;31.06;38.65
70170;DHT22;57543;45.442;9.212;2022-09-13T11:24:21;31.20;38.54
70170;DHT22;57543;45.442;9.212;2022-09-13T11:27:41;31.39;39.16
70170;DHT22;57543;45.442;9.212;2022-09-13T11:31:03;31.66;38.61
70170;DHT22;57543;45.442;9.212;2022-09-13T11:50:36;32.40;36.31
70170;DHT22;57543;45.442;9.212;2022-09-13T11:54:02;32.41;36.37
70170;DHT22;57543;45.442;9.212;2022-09-13T11:57:18;32.47;35.81
70170;DHT22;57543;45.442;9.212;2022-09-13T12:00:28;32.45;35.54
70170;DHT22;57543;45.442;9.212;2022-09-13T12:07:00;32.61;35.83
70170;DHT22;57543;45.442;9.212;2022-09-13T12:10:28;32.74;35.87
70170;DHT22;57543;45.442;9.212;2022-09-13T12:13:40;32.72;34.48
70170;DHT22;57543;45.442;9.212;2022-09-13T12:16:47;32.74;34.57
70170;DHT22;57543;45.442;9.212;2022-09-13T12:19:53;32.67;35.20
70170;DHT22;57543;45.442;9.212;2022-09-13T12:23:00;32.72;35.37
70170;DHT22;57543;45.442;9.212;2022-09-13T12:26:14;32.80;35.72
70170;DHT22;57543;45.442;9.212;2022-09-13T12:29:30;32.92;35.17
70170;DHT22;57543;45.442;9.212;2022-09-13T12:32:37;32.95;35.79
70170;DHT22;57543;45.442;9.212;2022-09-13T12:42:36;32.82;36.27
70170;DHT22;57543;45.442;9.212;2022-09-13T12:46:12;32.65;35.52
70170;DHT22;57543;45.442;9.212;2022-09-13T12:49:37;32.55;34.97
70170;DHT22;57543;45.442;9.212;2022-09-13T13:09:42;31.69;37.70
70170;DHT22;57543;45.442;9.212;2022-09-13T13:12:46;31.73;36.76
70170;DHT22;57543;45.442;9.212;2022-09-13T13:18:56;31.62;37.27
70170;DHT22;57543;45.442;9.212;2022-09-13T13:29:13;31.59;37.79
70170;DHT22;57543;45.442;9.212;2022-09-13T13:32:17;31.68;37.16
70170;DHT22;57543;45.442;9.212;2022-09-13T13:35:28;31.65;37.26
70170;DHT22;57543;45.442;9.212;2022-09-13T13:38:44;31.75;36.58
70170;DHT22;57543;45.442;9.212;2022-09-13T13:41:57;31.89;37.31
70170;DHT22;57543;45.442;9.212;2022-09-13T13:48:35;32.05;36.81
70170;DHT22;57543;45.442;9.212;2022-09-13T13:51:38;32.07;37.03
70170;DHT22;57543;45.442;9.212;2022-09-13T13:58:01;31.94;37.32
70170;DHT22;57543;45.442;9.212;2022-09-13T14:01:05;31.86;37.89
70170;DHT22;57543;45.442;9.212;2022-09-13T14:21:27;31.35;38.53
70170;DHT22;57543;45.442;9.212;2022-09-13T14:24:36;31.24;38.91
70170;DHT22;57543;45.442;9.212;2022-09-13T14:27:41;31.17;38.34
70170;DHT22;57543;45.442;9.212;2022-09-13T14:30:46;31.07;38.88
70170;DHT22;57543;45.442;9.212;2022-09-13T14:33:50;31.01;38.69
70170;DHT22;57543;45.442;9.212;2022-09-13T14:36:57;31.06;38.60
70170;DHT22;57543;45.442;9.212;2022-09-13T14:43:20;31.17;37.85
70170;DHT22;57543;45.442;9.212;2022-09-13T14:46:39;31.18;38.32
70170;DHT22;57543;45.442;9.212;2022-09-13T14:50:06;31.03;38.24
70170;DHT22;57543;45.442;9.212;2022-09-13T14:53:15;31.11;37.87
70170;DHT22;57543;45.442;9.212;2022-09-13T14:56:35;31.08;38.23
70170;DHT22;57543;45.442;9.212;2022-09-13T14:59:48;31.13;38.41
70170;DHT22;57543;45.442;9.212;2022-09-13T15:03:03;31.17;38.78
70170;DHT22;57543;45.442;9.212;2022-09-13T15:06:24;31.33;38.00
70170;DHT22;57543;45.442;9.212;2022-09-13T15:09:28;31.45;37.31
70170;DHT22;57543;45.442;9.212;2022-09-13T15:12:33;31.49;37.49
70170;DHT22;57543;45.442;9.212;2022-09-13T15:15:39;31.39;38.02
70170;DHT22;57543;45.442;9.212;2022-09-13T15:18:44;31.31;38.17
70170;DHT22;57543;45.442;9.212;2022-09-13T15:21:48;31.28;38.34
70170;DHT22;57543;45.442;9.212;2022-09-13T15:24:57;31.21;38.52
70170;DHT22;57543;45.442;9.212;2022-09-13T15:28:01;31.11;38.55
70170;DHT22;57543;45.442;9.212;2022-09-13T15:31:05;30.99;38.59
70170;DHT22;57543;45.442;9.212;2022-09-13T15:37:28;30.80;38.75
70170;DHT22;57543;45.442;9.212;2022-09-13T15:40:44;30.62;39.36
70170;DHT22;57543;45.442;9.212;2022-09-13T15:43:49;30.55;39.53
70170;DHT22;57543;45.442;9.212;2022-09-13T15:46:55;30.51;39.89
70170;DHT22;57543;45.442;9.212;2022-09-13T15:49:59;30.44;39.71
70170;DHT22;57543;45.442;9.212;2022-09-13T15:53:09;30.28;40.10
70170;DHT22;57543;45.442;9.212;2022-09-13T15:56:19;30.27;39.99
70170;DHT22;57543;45.442;9.212;2022-09-13T15:59:24;30.14;41.50
70170;DHT22;57543;45.442;9.212;2022-09-13T16:02:31;30.21;39.89
70170;DHT22;57543;45.442;9.212;2022-09-13T16:05:35;30.11;39.84
70170;DHT22;57543;45.442;9.212;2022-09-13T16:08:39;30.06;41.46
70170;DHT22;57543;45.442;9.212;2022-09-13T16:11:43;30.06;39.94
70170;DHT22;57543;45.442;9.212;2022-09-13T16:14:46;30.09;40.08
70170;DHT22;57543;45.442;9.212;2022-09-13T16:17:50;30.09;39.69
70170;DHT22;57543;45.442;9.212;2022-09-13T16:20:54;29.86;40.22
70170;DHT22;57543;45.442;9.212;2022-09-13T16:23:58;29.63;40.91
70170;DHT22;57543;45.442;9.212;2022-09-13T16:27:03;29.69;41.15
70170;DHT22;57543;45.442;9.212;2022-09-13T16:30:10;29.83;40.54
70170;DHT22;57543;45.442;9.212;2022-09-13T16:33:14;29.73;40.83
70170;DHT22;57543;45.442;9.212;2022-09-13T16:36:18;29.56;41.38
70170;DHT22;57543;45.442;9.212;2022-09-13T16:39:22;29.49;41.60
70170;DHT22;57543;45.442;9.212;2022-09-13T16:42:25;29.48;41.86
70170;DHT22;57543;45.442;9.212;2022-09-13T16:45:29;29.58;41.30
70170;DHT22;57543;45.442;9.212;2022-09-13T16:48:33;29.62;41.19
70170;DHT22;57543;45.442;9.212;2022-09-13T16:51:37;29.65;41.31
70170;DHT22;57543;45.442;9.212;2022-09-13T16:54:41;29.61;41.67
70170;DHT22;57543;45.442;9.212;2022-09-13T16:57:48;29.51;42.44
70170;DHT22;57543;45.442;9.212;2022-09-13T17:00:54;29.41;42.96
70170;DHT22;57543;45.442;9.212;2022-09-13T17:03:58;29.32;42.97
70170;DHT22;57543;45.442;9.212;2022-09-13T17:07:02;29.24;42.64
70170;DHT22;57543;45.442;9.212;2022-09-13T17:10:08;29.28;42.64
70170;DHT22;57543;45.442;9.212;2022-09-13T17:13:11;29.06;43.37
70170;DHT22;57543;45.442;9.212;2022-09-13T17:19:31;29.07;43.63
70170;DHT22;57543;45.442;9.212;2022-09-13T17:22:36;28.96;43.99
70170;DHT22;57543;45.442;9.212;2022-09-13T17:25:40;29.00;44.23
70170;DHT22;57543;45.442;9.212;2022-09-13T17:28:48;28.94;44.22
70170;DHT22;57543;45.442;9.212;2022-09-13T17:31:52;28.89;44.31
70170;DHT22;57543;45.442;9.212;2022-09-13T17:34:55;29.11;43.87
70170;DHT22;57543;45.442;9.212;2022-09-13T17:38:00;29.08;44.01
70170;DHT22;57543;45.442;9.212;2022-09-13T17:41:12;28.93;44.44
70170;DHT22;57543;45.442;9.212;2022-09-13T17:44:16;28.82;44.57
70170;DHT22;57543;45.442;9.212;2022-09-13T17:47:19;28.82;44.72
70170;DHT22;57543;45.442;9.212;2022-09-13T17:50:23;28.72;45.18
70170;DHT22;57543;45.442;9.212;2022-09-13T17:53:27;28.83;44.56
70170;DHT22;57543;45.442;9.212;2022-09-13T17:56:37;28.75;44.90
70170;DHT22;57543;45.442;9.212;2022-09-13T17:59:41;28.75;44.93
70170;DHT22;57543;45.442;9.212;2022-09-13T18:02:45;28.63;45.26
70170;DHT22;57543;45.442;9.212;2022-09-13T18:05:53;28.66;45.35
70170;DHT22;57543;45.442;9.212;2022-09-13T18:08:58;28.60;45.58
70170;DHT22;57543;45.442;9.212;2022-09-13T18:12:02;28.70;45.46
70170;DHT22;57543;45.442;9.212;2022-09-13T18:15:06;28.65;45.64
70170;DHT22;57543;45.442;9.212;2022-09-13T18:18:11;28.70;45.71
70170;DHT22;57543;45.442;9.212;2022-09-13T18:21:16;28.60;46.07
70170;DHT22;57543;45.442;9.212;2022-09-13T18:24:21;28.51;45.18
70170;DHT22;57543;45.442;9.212;2022-09-13T18:27:24;28.52;44.99
70170;DHT22;57543;45.442;9.212;2022-09-13T18:30:28;28.42;45.46
70170;DHT22;57543;45.442;9.212;2022-09-13T18:33:32;28.27;45.49
70170;DHT22;57543;45.442;9.212;2022-09-13T18:36:36;28.34;45.04
70170;DHT22;57543;45.442;9.212;2022-09-13T18:39:40;28.21;44.94
70170;DHT22;57543;45.442;9.212;2022-09-13T18:42:44;28.15;45.29
70170;DHT22;57543;45.442;9.212;2022-09-13T18:45:55;28.04;45.22
70170;DHT22;57543;45.442;9.212;2022-09-13T18:49:00;27.97;45.42
70170;DHT22;57543;45.442;9.212;2022-09-13T18:52:05;27.96;45.44
70170;DHT22;57543;45.442;9.212;2022-09-13T18:55:09;27.94;45.46
70170;DHT22;57543;45.442;9.212;2022-09-13T18:58:13;27.93;45.45
70170;DHT22;57543;45.442;9.212;2022-09-13T19:01:19;27.98;45.43
70170;DHT22;57543;45.442;9.212;2022-09-13T19:04:23;27.86;45.66
70170;DHT22;57543;45.442;9.212;2022-09-13T19:07:27;27.85;45.79
70170;DHT22;57543;45.442;9.212;2022-09-13T19:10:31;27.83;45.87
70170;DHT22;57543;45.442;9.212;2022-09-13T19:13:36;27.89;45.86
70170;DHT22;57543;45.442;9.212;2022-09-13T19:16:39;27.74;46.16
70170;DHT22;57543;45.442;9.212;2022-09-13T19:19:43;27.69;46.32
70170;DHT22;57543;45.442;9.212;2022-09-13T19:22:48;27.69;46.24
70170;DHT22;57543;45.442;9.212;2022-09-13T19:25:52;27.61;46.51
70170;DHT22;57543;45.442;9.212;2022-09-13T19:28:58;27.65;46.63
70170;DHT22;57543;45.442;9.212;2022-09-13T19:32:06;27.53;46.76
70170;DHT22;57543;45.442;9.212;2022-09-13T19:35:10;27.62;46.71
70170;DHT22;57543;45.442;9.212;2022-09-13T19:38:14;27.48;46.88
70170;DHT22;57543;45.442;9.212;2022-09-13T19:41:19;27.55;46.74
70170;DHT22;57543;45.442;9.212;2022-09-13T19:44:24;27.48;46.95
70170;DHT22;57543;45.442;9.212;2022-09-13T19:47:28;27.39;47.11
70170;DHT22;57543;45.442;9.212;2022-09-13T19:50:31;27.39;47.17
70170;DHT22;57543;45.442;9.212;2022-09-13T19:53:36;27.45;47.07
70170;DHT22;57543;45.442;9.212;2022-09-13T19:56:41;27.41;47.11
70170;DHT22;57543;45.442;9.212;2022-09-13T19:59:45;27.42;47.23
70170;DHT22;57543;45.442;9.212;2022-09-13T20:02:49;27.41;47.16
70170;DHT22;57543;45.442;9.212;2022-09-13T20:05:53;27.38;47.30
70170;DHT22;57543;45.442;9.212;2022-09-13T20:08:58;27.33;47.28
70170;DHT22;57543;45.442;9.212;2022-09-13T20:12:02;27.35;47.20
70170;DHT22;57543;45.442;9.212;2022-09-13T20:15:09;27.37;46.93
70170;DHT22;57543;45.442;9.212;2022-09-13T20:18:13;27.37;46.70
70170;DHT22;57543;45.442;9.212;2022-09-13T20:21:18;27.35;46.54
70170;DHT22;57543;45.442;9.212;2022-09-13T20:24:21;27.25;46.94
70170;DHT22;57543;45.442;9.212;2022-09-13T20:27:25;27.27;46.66
70170;DHT22;57543;45.442;9.212;2022-09-13T20:30:28;27.28;46.52
70170;DHT22;57543;45.442;9.212;2022-09-13T20:33:33;27.27;46.46
70170;DHT22;57543;45.442;9.212;2022-09-13T20:36:38;27.23;46.82
70170;DHT22;57543;45.442;9.212;2022-09-13T20:39:43;27.23;46.71
70170;DHT22;57543;45.442;9.212;2022-09-13T20:42:47;27.24;46.46
70170;DHT22;57543;45.442;9.212;2022-09-13T20:45:55;27.30;46.18
70170;DHT22;57543;45.442;9.212;2022-09-13T20:49:01;27.25;46.16
70170;DHT22;57543;45.442;9.212;2022-09-13T20:52:07;27.24;46.11
70170;DHT22;57543;45.442;9.212;2022-09-13T20:55:11;27.23;46.33
70170;DHT22;57543;45.442;9.212;2022-09-13T20:58:15;27.17;46.22
70170;DHT22;57543;45.442;9.212;2022-09-13T21:01:20;27.12;46.34
70170;DHT22;57543;45.442;9.212;2022-09-13T21:04:23;27.10;46.49
70170;DHT22;57543;45.442;9.212;2022-09-13T21:07:27;27.11;46.63
70170;DHT22;57543;45.442;9.212;2022-09-13T21:10:57;27.08;46.68
70170;DHT22;57543;45.442;9.212;2022-09-13T21:14:09;27.10;46.59
70170;DHT22;57543;45.442;9.212;2022-09-13T21:17:13;27.08;46.58
70170;DHT22;57543;45.442;9.212;2022-09-13T21:20:20;27.06;46.64
70170;DHT22;57543;45.442;9.212;2022-09-13T21:23:23;27.04;46.66
70170;DHT22;57543;45.442;9.212;2022-09-13T21:26:27;26.99;46.82
70170;DHT22;57543;45.442;9.212;2022-09-13T21:29:32;26.96;46.80
70170;DHT22;57543;45.442;9.212;2022-09-13T21:32:36;26.97;46.78
70170;DHT22;57543;45.442;9.212;2022-09-13T21:35:40;26.96;46.99
70170;DHT22;57543;45.442;9.212;2022-09-13T21:38:43;26.93;46.97
70170;DHT22;57543;45.442;9.212;2022-09-13T21:41:47;26.99;46.90
70170;DHT22;57543;45.442;9.212;2022-09-13T21:44:51;26.90;47.06
70170;DHT22;57543;45.442;9.212;2022-09-13T21:47:56;26.87;47.18
70170;DHT22;57543;45.442;9.212;2022-09-13T21:51:04;26.84;47.13
70170;DHT22;57543;45.442;9.212;2022-09-13T21:54:11;26.80;47.32
70170;DHT22;57543;45.442;9.212;2022-09-13T21:57:16;26.80;47.50
70170;DHT22;57543;45.442;9.212;2022-09-13T22:00:20;26.83;47.66
70170;DHT22;57543;45.442;9.212;2022-09-13T22:03:24;26.78;47.85
70170;DHT22;57543;45.442;9.212;2022-09-13T22:06:27;26.79;47.86
70170;DHT22;57543;45.442;9.212;2022-09-13T22:09:33;26.73;48.25
70170;DHT22;57543;45.442;9.212;2022-09-13T22:12:36;26.71;48.19
70170;DHT22;57543;45.442;9.212;2022-09-13T22:15:40;26.69;48.42
70170;DHT22;57543;45.442;9.212;2022-09-13T22:18:45;26.66;48.46
70170;DHT22;57543;45.442;9.212;2022-09-13T22:21:51;26.69;48.43